Mohe, China
Current Conditions -  °F | °C
As of 4:30 PM on Tuesday 21 Oct 2014 (Local Time) from UHBB Reporting Station
Clear Clear  
Wind Chill: 20°   Ceiling: Unl
Heat Index: 28°   Visibility: 6mi
Dew Point: -2°   Wind: 9mph
Humidity: 27%   Direction: 290°WNW
Pressure: 30.12"   Gusts: NA
Location:  53.13°N, 122.52°E
Report Text: UHBB 210830Z 29004MPS 260V330 CAVOK M02/M19 Q1020 NOSIG RMKQFE747/0996 36090060
Loading
Personal Weather Stations






























Interactive Weather Map
Tropical Storm Tracking
New forecast layout! Learn more

10-Day Weather Forecast

Advertisements
Track Severe Weather on mobile